Terminal Aerodrome Forecast
Issued by NWS

Home | Current Version | Previous Version | Text Only | Print | Product List | Glossary On
Versions: 1 2 3 4 5 6 7 8 9 10 11 12 13 14 15 16 17 18 19
000
FTUS43 KICT 300609 AAA
TAFSLN
TAF AMD
KSLN 300609Z 3006/0106 36007KT P6SM OVC007
      TEMPO 3006/3008 3SM -RA BR OVC006
     FM300900 32013KT 5SM BR OVC005
     FM301600 27016KT P6SM BKN040=

USA.gov is the U.S. government's official web portal to all federal, state and local government web resources and services.